sensor_id;sensor_type;location;lat;lon;timestamp;P1;durP1;ratioP1;P2;durP2;ratioP2
73321;SDS011;61549;37.044;22.128;2023-04-03T00:01:43;8.82;;;3.00;;
73321;SDS011;61549;37.044;22.128;2023-04-03T00:04:11;9.20;;;4.85;;
73321;SDS011;61549;37.044;22.128;2023-04-03T00:06:36;10.73;;;4.00;;
73321;SDS011;61549;37.044;22.128;2023-04-03T00:09:02;10.18;;;4.18;;
73321;SDS011;61549;37.044;22.128;2023-04-03T00:11:28;10.63;;;3.90;;
73321;SDS011;61549;37.044;22.128;2023-04-03T00:13:54;13.18;;;3.70;;
73321;SDS011;61549;37.044;22.128;2023-04-03T00:16:20;7.80;;;3.25;;
73321;SDS011;61549;37.044;22.128;2023-04-03T00:18:46;8.88;;;3.58;;
73321;SDS011;61549;37.044;22.128;2023-04-03T00:21:12;9.13;;;3.42;;
73321;SDS011;61549;37.044;22.128;2023-04-03T00:23:38;11.80;;;4.15;;
73321;SDS011;61549;37.044;22.128;2023-04-03T00:26:04;9.95;;;3.67;;
73321;SDS011;61549;37.044;22.128;2023-04-03T00:28:30;8.23;;;3.70;;
73321;SDS011;61549;37.044;22.128;2023-04-03T00:30:56;11.43;;;4.78;;
73321;SDS011;61549;37.044;22.128;2023-04-03T00:33:22;14.93;;;6.90;;
73321;SDS011;61549;37.044;22.128;2023-04-03T00:35:49;13.35;;;6.25;;
73321;SDS011;61549;37.044;22.128;2023-04-03T00:38:15;14.15;;;4.82;;
73321;SDS011;61549;37.044;22.128;2023-04-03T00:40:43;9.63;;;3.88;;
73321;SDS011;61549;37.044;22.128;2023-04-03T00:43:17;9.60;;;3.53;;
73321;SDS011;61549;37.044;22.128;2023-04-03T00:45:48;6.78;;;3.40;;
73321;SDS011;61549;37.044;22.128;2023-04-03T00:48:23;11.50;;;4.22;;
73321;SDS011;61549;37.044;22.128;2023-04-03T00:50:53;10.80;;;3.75;;
73321;SDS011;61549;37.044;22.128;2023-04-03T00:53:23;9.68;;;4.05;;
73321;SDS011;61549;37.044;22.128;2023-04-03T00:55:55;10.82;;;5.40;;
73321;SDS011;61549;37.044;22.128;2023-04-03T00:58:23;11.02;;;4.90;;
73321;SDS011;61549;37.044;22.128;2023-04-03T01:01:22;11.95;;;4.53;;
73321;SDS011;61549;37.044;22.128;2023-04-03T01:03:50;10.30;;;3.60;;
73321;SDS011;61549;37.044;22.128;2023-04-03T01:06:16;10.65;;;3.60;;
73321;SDS011;61549;37.044;22.128;2023-04-03T01:08:47;6.63;;;3.45;;
73321;SDS011;61549;37.044;22.128;2023-04-03T01:11:15;9.50;;;3.05;;
73321;SDS011;61549;37.044;22.128;2023-04-03T01:13:40;10.90;;;3.55;;
73321;SDS011;61549;37.044;22.128;2023-04-03T01:16:08;8.77;;;2.97;;
73321;SDS011;61549;37.044;22.128;2023-04-03T01:18:36;6.07;;;2.28;;
73321;SDS011;61549;37.044;22.128;2023-04-03T01:26:39;8.48;;;2.10;;
73321;SDS011;61549;37.044;22.128;2023-04-03T01:29:05;5.75;;;2.30;;
73321;SDS011;61549;37.044;22.128;2023-04-03T01:31:38;7.82;;;2.50;;
73321;SDS011;61549;37.044;22.128;2023-04-03T01:34:22;13.10;;;2.90;;
73321;SDS011;61549;37.044;22.128;2023-04-03T01:36:48;7.78;;;1.98;;
73321;SDS011;61549;37.044;22.128;2023-04-03T01:39:14;5.38;;;1.80;;
73321;SDS011;61549;37.044;22.128;2023-04-03T01:41:40;15.65;;;6.50;;
73321;SDS011;61549;37.044;22.128;2023-04-03T01:44:06;15.32;;;4.63;;
73321;SDS011;61549;37.044;22.128;2023-04-03T01:46:31;10.25;;;2.50;;
73321;SDS011;61549;37.044;22.128;2023-04-03T01:48:57;10.15;;;2.53;;
73321;SDS011;61549;37.044;22.128;2023-04-03T01:51:23;9.00;;;1.92;;
73321;SDS011;61549;37.044;22.128;2023-04-03T01:53:49;7.20;;;2.10;;
73321;SDS011;61549;37.044;22.128;2023-04-03T01:56:16;8.40;;;1.60;;
73321;SDS011;61549;37.044;22.128;2023-04-03T01:58:42;8.88;;;1.77;;
73321;SDS011;61549;37.044;22.128;2023-04-03T02:01:08;7.38;;;1.70;;
73321;SDS011;61549;37.044;22.128;2023-04-03T02:03:36;9.02;;;1.60;;
73321;SDS011;61549;37.044;22.128;2023-04-03T02:06:01;5.10;;;1.80;;
73321;SDS011;61549;37.044;22.128;2023-04-03T02:08:27;14.38;;;2.05;;
73321;SDS011;61549;37.044;22.128;2023-04-03T02:10:53;6.85;;;2.30;;
73321;SDS011;61549;37.044;22.128;2023-04-03T02:13:19;8.30;;;2.47;;
73321;SDS011;61549;37.044;22.128;2023-04-03T02:15:45;10.57;;;2.90;;
73321;SDS011;61549;37.044;22.128;2023-04-03T02:18:12;11.05;;;2.50;;
73321;SDS011;61549;37.044;22.128;2023-04-03T02:20:41;8.55;;;2.63;;
73321;SDS011;61549;37.044;22.128;2023-04-03T02:23:07;7.95;;;2.53;;
73321;SDS011;61549;37.044;22.128;2023-04-03T02:28:03;9.82;;;2.78;;
73321;SDS011;61549;37.044;22.128;2023-04-03T02:30:28;13.10;;;3.00;;
73321;SDS011;61549;37.044;22.128;2023-04-03T02:32:54;10.60;;;3.00;;
73321;SDS011;61549;37.044;22.128;2023-04-03T02:35:20;8.00;;;2.80;;
73321;SDS011;61549;37.044;22.128;2023-04-03T02:37:46;9.45;;;2.75;;
73321;SDS011;61549;37.044;22.128;2023-04-03T02:40:12;11.00;;;3.33;;
73321;SDS011;61549;37.044;22.128;2023-04-03T02:42:38;10.13;;;3.00;;
73321;SDS011;61549;37.044;22.128;2023-04-03T02:45:04;10.93;;;2.70;;
73321;SDS011;61549;37.044;22.128;2023-04-03T02:47:30;8.05;;;2.63;;
73321;SDS011;61549;37.044;22.128;2023-04-03T02:49:56;9.85;;;3.50;;
73321;SDS011;61549;37.044;22.128;2023-04-03T02:52:22;10.77;;;3.65;;
73321;SDS011;61549;37.044;22.128;2023-04-03T02:54:48;9.50;;;3.03;;
73321;SDS011;61549;37.044;22.128;2023-04-03T02:57:14;15.48;;;3.90;;
73321;SDS011;61549;37.044;22.128;2023-04-03T02:59:40;13.27;;;4.57;;
73321;SDS011;61549;37.044;22.128;2023-04-03T03:02:08;11.30;;;3.50;;
73321;SDS011;61549;37.044;22.128;2023-04-03T03:04:35;12.68;;;4.50;;
73321;SDS011;61549;37.044;22.128;2023-04-03T03:07:01;14.05;;;5.10;;
73321;SDS011;61549;37.044;22.128;2023-04-03T03:09:27;9.68;;;3.70;;
73321;SDS011;61549;37.044;22.128;2023-04-03T03:11:54;11.30;;;3.95;;
73321;SDS011;61549;37.044;22.128;2023-04-03T03:14:21;15.77;;;3.53;;
73321;SDS011;61549;37.044;22.128;2023-04-03T03:16:48;11.75;;;3.92;;
73321;SDS011;61549;37.044;22.128;2023-04-03T03:19:15;13.07;;;3.42;;
73321;SDS011;61549;37.044;22.128;2023-04-03T03:21:41;14.45;;;3.78;;
73321;SDS011;61549;37.044;22.128;2023-04-03T03:24:06;9.80;;;3.95;;
73321;SDS011;61549;37.044;22.128;2023-04-03T03:26:32;10.48;;;3.80;;
73321;SDS011;61549;37.044;22.128;2023-04-03T03:28:58;13.32;;;4.32;;
73321;SDS011;61549;37.044;22.128;2023-04-03T03:31:26;13.38;;;4.03;;
73321;SDS011;61549;37.044;22.128;2023-04-03T03:33:52;13.25;;;3.75;;
73321;SDS011;61549;37.044;22.128;2023-04-03T03:36:18;16.98;;;4.80;;
73321;SDS011;61549;37.044;22.128;2023-04-03T03:38:44;15.05;;;4.47;;
73321;SDS011;61549;37.044;22.128;2023-04-03T03:41:10;11.95;;;4.20;;
73321;SDS011;61549;37.044;22.128;2023-04-03T03:43:36;12.43;;;4.05;;
73321;SDS011;61549;37.044;22.128;2023-04-03T03:46:02;14.60;;;4.03;;
73321;SDS011;61549;37.044;22.128;2023-04-03T03:48:27;14.80;;;4.03;;
73321;SDS011;61549;37.044;22.128;2023-04-03T03:50:53;15.48;;;4.25;;
73321;SDS011;61549;37.044;22.128;2023-04-03T03:53:19;12.85;;;4.25;;
73321;SDS011;61549;37.044;22.128;2023-04-03T03:55:45;11.95;;;4.00;;
73321;SDS011;61549;37.044;22.128;2023-04-03T03:58:11;13.60;;;4.10;;
73321;SDS011;61549;37.044;22.128;2023-04-03T04:00:36;14.63;;;4.40;;
73321;SDS011;61549;37.044;22.128;2023-04-03T04:03:02;14.68;;;3.83;;
73321;SDS011;61549;37.044;22.128;2023-04-03T04:05:28;18.85;;;4.78;;
73321;SDS011;61549;37.044;22.128;2023-04-03T04:07:54;21.55;;;4.03;;
73321;SDS011;61549;37.044;22.128;2023-04-03T04:10:22;16.77;;;4.05;;
73321;SDS011;61549;37.044;22.128;2023-04-03T04:12:48;12.98;;;3.25;;
73321;SDS011;61549;37.044;22.128;2023-04-03T04:15:16;14.50;;;3.97;;
73321;SDS011;61549;37.044;22.128;2023-04-03T04:17:42;15.02;;;3.95;;
73321;SDS011;61549;37.044;22.128;2023-04-03T04:20:08;18.33;;;4.18;;
73321;SDS011;61549;37.044;22.128;2023-04-03T04:22:34;12.40;;;3.40;;
73321;SDS011;61549;37.044;22.128;2023-04-03T04:25:00;20.45;;;4.30;;
73321;SDS011;61549;37.044;22.128;2023-04-03T04:27:26;15.93;;;5.70;;
73321;SDS011;61549;37.044;22.128;2023-04-03T04:29:52;16.77;;;4.90;;
73321;SDS011;61549;37.044;22.128;2023-04-03T04:32:18;14.18;;;5.05;;
73321;SDS011;61549;37.044;22.128;2023-04-03T04:34:44;17.15;;;4.88;;
73321;SDS011;61549;37.044;22.128;2023-04-03T04:37:10;16.35;;;4.85;;
73321;SDS011;61549;37.044;22.128;2023-04-03T04:39:36;13.85;;;4.35;;
73321;SDS011;61549;37.044;22.128;2023-04-03T04:42:01;20.55;;;5.55;;
73321;SDS011;61549;37.044;22.128;2023-04-03T04:44:27;23.73;;;10.35;;
73321;SDS011;61549;37.044;22.128;2023-04-03T04:46:53;21.80;;;7.57;;
73321;SDS011;61549;37.044;22.128;2023-04-03T04:49:19;17.85;;;6.38;;
73321;SDS011;61549;37.044;22.128;2023-04-03T04:51:45;18.45;;;6.18;;
73321;SDS011;61549;37.044;22.128;2023-04-03T04:54:11;18.10;;;5.10;;
73321;SDS011;61549;37.044;22.128;2023-04-03T04:56:37;16.58;;;4.88;;
73321;SDS011;61549;37.044;22.128;2023-04-03T04:59:02;15.68;;;4.90;;
73321;SDS011;61549;37.044;22.128;2023-04-03T05:01:30;22.85;;;5.45;;
73321;SDS011;61549;37.044;22.128;2023-04-03T05:03:56;15.15;;;4.85;;
73321;SDS011;61549;37.044;22.128;2023-04-03T05:06:22;23.23;;;5.13;;
73321;SDS011;61549;37.044;22.128;2023-04-03T05:08:48;19.80;;;4.75;;
73321;SDS011;61549;37.044;22.128;2023-04-03T05:11:13;18.75;;;5.63;;
73321;SDS011;61549;37.044;22.128;2023-04-03T05:13:39;14.68;;;4.72;;
73321;SDS011;61549;37.044;22.128;2023-04-03T05:16:07;18.30;;;5.40;;
73321;SDS011;61549;37.044;22.128;2023-04-03T05:18:33;16.65;;;4.90;;
73321;SDS011;61549;37.044;22.128;2023-04-03T05:20:59;18.63;;;5.47;;
73321;SDS011;61549;37.044;22.128;2023-04-03T05:23:24;15.30;;;5.05;;
73321;SDS011;61549;37.044;22.128;2023-04-03T05:25:51;26.58;;;5.43;;
73321;SDS011;61549;37.044;22.128;2023-04-03T05:28:17;20.70;;;4.82;;
73321;SDS011;61549;37.044;22.128;2023-04-03T05:30:43;23.13;;;4.97;;
73321;SDS011;61549;37.044;22.128;2023-04-03T05:33:09;21.30;;;4.95;;
73321;SDS011;61549;37.044;22.128;2023-04-03T05:35:36;28.48;;;8.23;;
73321;SDS011;61549;37.044;22.128;2023-04-03T05:38:06;25.70;;;6.85;;
73321;SDS011;61549;37.044;22.128;2023-04-03T05:40:32;22.27;;;8.18;;
73321;SDS011;61549;37.044;22.128;2023-04-03T05:42:58;23.55;;;8.10;;
73321;SDS011;61549;37.044;22.128;2023-04-03T05:48:00;20.13;;;7.25;;
73321;SDS011;61549;37.044;22.128;2023-04-03T05:50:26;26.08;;;7.80;;
73321;SDS011;61549;37.044;22.128;2023-04-03T05:52:53;28.45;;;8.68;;
73321;SDS011;61549;37.044;22.128;2023-04-03T05:55:22;27.80;;;9.00;;
73321;SDS011;61549;37.044;22.128;2023-04-03T05:58:00;30.27;;;8.40;;
73321;SDS011;61549;37.044;22.128;2023-04-03T06:00:25;29.20;;;7.97;;
73321;SDS011;61549;37.044;22.128;2023-04-03T06:02:54;27.98;;;7.88;;
73321;SDS011;61549;37.044;22.128;2023-04-03T06:05:19;26.77;;;7.70;;
73321;SDS011;61549;37.044;22.128;2023-04-03T06:07:45;24.70;;;7.35;;
73321;SDS011;61549;37.044;22.128;2023-04-03T06:10:12;25.67;;;8.60;;
73321;SDS011;61549;37.044;22.128;2023-04-03T06:12:38;23.10;;;8.00;;
73321;SDS011;61549;37.044;22.128;2023-04-03T06:15:04;20.27;;;7.35;;
73321;SDS011;61549;37.044;22.128;2023-04-03T06:17:30;25.58;;;7.93;;
73321;SDS011;61549;37.044;22.128;2023-04-03T06:19:56;16.15;;;7.10;;
73321;SDS011;61549;37.044;22.128;2023-04-03T06:22:23;21.70;;;7.28;;
73321;SDS011;61549;37.044;22.128;2023-04-03T06:24:50;18.45;;;6.43;;
73321;SDS011;61549;37.044;22.128;2023-04-03T06:27:17;18.55;;;6.35;;
73321;SDS011;61549;37.044;22.128;2023-04-03T06:29:43;17.98;;;6.15;;
73321;SDS011;61549;37.044;22.128;2023-04-03T06:32:10;18.65;;;5.90;;
73321;SDS011;61549;37.044;22.128;2023-04-03T06:34:36;24.48;;;7.38;;
73321;SDS011;61549;37.044;22.128;2023-04-03T06:37:02;20.45;;;7.00;;
73321;SDS011;61549;37.044;22.128;2023-04-03T06:39:27;20.35;;;6.95;;
73321;SDS011;61549;37.044;22.128;2023-04-03T06:41:54;21.17;;;7.47;;
73321;SDS011;61549;37.044;22.128;2023-04-03T06:44:21;18.55;;;7.18;;
73321;SDS011;61549;37.044;22.128;2023-04-03T06:46:47;23.88;;;8.95;;
73321;SDS011;61549;37.044;22.128;2023-04-03T06:49:14;27.92;;;11.93;;
73321;SDS011;61549;37.044;22.128;2023-04-03T06:51:40;27.50;;;11.27;;
73321;SDS011;61549;37.044;22.128;2023-04-03T06:54:06;28.67;;;12.57;;
73321;SDS011;61549;37.044;22.128;2023-04-03T06:56:33;23.00;;;11.55;;
73321;SDS011;61549;37.044;22.128;2023-04-03T06:58:59;22.30;;;10.63;;
73321;SDS011;61549;37.044;22.128;2023-04-03T07:01:31;26.48;;;11.77;;
73321;SDS011;61549;37.044;22.128;2023-04-03T07:03:58;23.77;;;11.13;;
73321;SDS011;61549;37.044;22.128;2023-04-03T07:06:24;26.23;;;13.05;;
73321;SDS011;61549;37.044;22.128;2023-04-03T07:08:51;25.15;;;11.73;;
73321;SDS011;61549;37.044;22.128;2023-04-03T07:11:18;23.83;;;12.07;;
73321;SDS011;61549;37.044;22.128;2023-04-03T07:13:43;27.70;;;14.15;;
73321;SDS011;61549;37.044;22.128;2023-04-03T07:16:09;32.90;;;18.67;;
73321;SDS011;61549;37.044;22.128;2023-04-03T07:18:36;31.55;;;18.10;;
73321;SDS011;61549;37.044;22.128;2023-04-03T07:21:02;28.52;;;12.60;;
73321;SDS011;61549;37.044;22.128;2023-04-03T07:23:28;28.50;;;12.57;;
73321;SDS011;61549;37.044;22.128;2023-04-03T07:25:54;28.00;;;12.48;;
73321;SDS011;61549;37.044;22.128;2023-04-03T07:28:20;32.33;;;12.85;;
73321;SDS011;61549;37.044;22.128;2023-04-03T07:30:52;30.02;;;13.00;;
73321;SDS011;61549;37.044;22.128;2023-04-03T07:33:33;29.77;;;13.77;;
73321;SDS011;61549;37.044;22.128;2023-04-03T07:36:00;35.17;;;13.55;;
73321;SDS011;61549;37.044;22.128;2023-04-03T07:38:26;23.75;;;10.95;;
73321;SDS011;61549;37.044;22.128;2023-04-03T07:40:52;29.88;;;10.95;;
73321;SDS011;61549;37.044;22.128;2023-04-03T07:43:19;25.05;;;10.75;;
73321;SDS011;61549;37.044;22.128;2023-04-03T07:45:48;22.23;;;9.43;;
73321;SDS011;61549;37.044;22.128;2023-04-03T07:48:16;28.42;;;14.23;;
73321;SDS011;61549;37.044;22.128;2023-04-03T07:50:43;34.58;;;17.08;;
73321;SDS011;61549;37.044;22.128;2023-04-03T07:53:09;31.50;;;16.90;;
73321;SDS011;61549;37.044;22.128;2023-04-03T07:55:35;30.88;;;14.73;;
73321;SDS011;61549;37.044;22.128;2023-04-03T07:58:08;43.17;;;19.65;;
73321;SDS011;61549;37.044;22.128;2023-04-03T08:00:36;43.88;;;19.33;;
73321;SDS011;61549;37.044;22.128;2023-04-03T08:03:02;42.53;;;18.23;;
73321;SDS011;61549;37.044;22.128;2023-04-03T08:05:29;46.08;;;18.58;;
73321;SDS011;61549;37.044;22.128;2023-04-03T08:07:55;33.47;;;14.52;;
73321;SDS011;61549;37.044;22.128;2023-04-03T08:10:21;28.85;;;13.57;;
73321;SDS011;61549;37.044;22.128;2023-04-03T08:12:47;32.20;;;11.63;;
73321;SDS011;61549;37.044;22.128;2023-04-03T08:15:13;23.15;;;6.70;;
73321;SDS011;61549;37.044;22.128;2023-04-03T08:17:39;21.55;;;5.38;;
73321;SDS011;61549;37.044;22.128;2023-04-03T08:20:06;27.67;;;6.20;;
73321;SDS011;61549;37.044;22.128;2023-04-03T08:22:33;26.38;;;5.28;;
73321;SDS011;61549;37.044;22.128;2023-04-03T08:24:59;29.75;;;5.28;;
73321;SDS011;61549;37.044;22.128;2023-04-03T08:27:26;28.05;;;5.45;;
73321;SDS011;61549;37.044;22.128;2023-04-03T08:29:54;21.90;;;4.50;;
73321;SDS011;61549;37.044;22.128;2023-04-03T08:32:20;29.95;;;6.07;;
73321;SDS011;61549;37.044;22.128;2023-04-03T08:34:47;38.25;;;7.20;;
73321;SDS011;61549;37.044;22.128;2023-04-03T08:37:13;31.88;;;5.78;;
73321;SDS011;61549;37.044;22.128;2023-04-03T08:39:38;28.73;;;5.15;;
73321;SDS011;61549;37.044;22.128;2023-04-03T08:42:27;27.60;;;5.47;;
73321;SDS011;61549;37.044;22.128;2023-04-03T08:47:46;23.65;;;4.95;;
73321;SDS011;61549;37.044;22.128;2023-04-03T08:50:38;25.48;;;5.47;;
73321;SDS011;61549;37.044;22.128;2023-04-03T08:53:11;21.98;;;5.07;;
73321;SDS011;61549;37.044;22.128;2023-04-03T08:55:46;21.23;;;5.07;;
73321;SDS011;61549;37.044;22.128;2023-04-03T08:58:19;24.90;;;5.70;;
73321;SDS011;61549;37.044;22.128;2023-04-03T09:03:22;27.48;;;6.38;;
73321;SDS011;61549;37.044;22.128;2023-04-03T09:21:55;16.70;;;3.45;;
73321;SDS011;61549;37.044;22.128;2023-04-03T09:24:39;20.10;;;3.70;;
73321;SDS011;61549;37.044;22.128;2023-04-03T09:27:09;22.13;;;3.78;;
73321;SDS011;61549;37.044;22.128;2023-04-03T09:29:39;21.55;;;3.53;;
73321;SDS011;61549;37.044;22.128;2023-04-03T09:34:54;20.52;;;3.80;;
73321;SDS011;61549;37.044;22.128;2023-04-03T09:42:53;16.15;;;3.90;;
73321;SDS011;61549;37.044;22.128;2023-04-03T09:45:27;22.63;;;3.67;;
73321;SDS011;61549;37.044;22.128;2023-04-03T09:53:26;29.75;;;5.03;;
73321;SDS011;61549;37.044;22.128;2023-04-03T10:01:35;22.40;;;4.72;;
73321;SDS011;61549;37.044;22.128;2023-04-03T10:04:04;22.05;;;4.30;;
73321;SDS011;61549;37.044;22.128;2023-04-03T10:06:31;26.17;;;4.70;;
73321;SDS011;61549;37.044;22.128;2023-04-03T10:09:06;30.83;;;5.18;;
73321;SDS011;61549;37.044;22.128;2023-04-03T10:12:04;34.17;;;5.55;;
73321;SDS011;61549;37.044;22.128;2023-04-03T10:14:33;31.33;;;5.07;;
73321;SDS011;61549;37.044;22.128;2023-04-03T11:01:38;28.50;;;5.28;;
73321;SDS011;61549;37.044;22.128;2023-04-03T11:04:06;29.48;;;5.70;;
73321;SDS011;61549;37.044;22.128;2023-04-03T11:06:43;36.42;;;6.03;;
73321;SDS011;61549;37.044;22.128;2023-04-03T11:09:37;30.20;;;6.60;;
73321;SDS011;61549;37.044;22.128;2023-04-03T11:12:13;32.30;;;5.50;;
73321;SDS011;61549;37.044;22.128;2023-04-03T11:15:11;35.97;;;5.68;;
73321;SDS011;61549;37.044;22.128;2023-04-03T11:17:42;26.27;;;6.20;;
73321;SDS011;61549;37.044;22.128;2023-04-03T11:23:03;30.80;;;5.75;;
73321;SDS011;61549;37.044;22.128;2023-04-03T11:25:44;37.08;;;5.40;;
73321;SDS011;61549;37.044;22.128;2023-04-03T11:28:15;28.65;;;5.20;;
73321;SDS011;61549;37.044;22.128;2023-04-03T11:30:46;23.02;;;5.30;;
73321;SDS011;61549;37.044;22.128;2023-04-03T11:36:23;24.48;;;4.95;;
73321;SDS011;61549;37.044;22.128;2023-04-03T11:38:57;22.10;;;4.45;;
73321;SDS011;61549;37.044;22.128;2023-04-03T11:41:29;16.50;;;4.23;;
73321;SDS011;61549;37.044;22.128;2023-04-03T11:44:01;21.60;;;4.47;;
73321;SDS011;61549;37.044;22.128;2023-04-03T11:47:02;15.77;;;3.67;;
73321;SDS011;61549;37.044;22.128;2023-04-03T12:35:17;17.52;;;3.50;;
73321;SDS011;61549;37.044;22.128;2023-04-03T12:46:07;10.07;;;2.50;;
73321;SDS011;61549;37.044;22.128;2023-04-03T12:48:51;14.15;;;2.40;;
73321;SDS011;61549;37.044;22.128;2023-04-03T12:51:27;8.27;;;1.98;;
73321;SDS011;61549;37.044;22.128;2023-04-03T12:54:14;8.15;;;2.33;;
73321;SDS011;61549;37.044;22.128;2023-04-03T12:56:44;8.68;;;1.98;;
73321;SDS011;61549;37.044;22.128;2023-04-03T13:01:40;6.35;;;1.90;;
73321;SDS011;61549;37.044;22.128;2023-04-03T13:04:09;7.68;;;1.63;;
73321;SDS011;61549;37.044;22.128;2023-04-03T13:06:39;9.18;;;1.92;;
73321;SDS011;61549;37.044;22.128;2023-04-03T13:09:16;6.60;;;2.00;;
73321;SDS011;61549;37.044;22.128;2023-04-03T13:11:47;10.38;;;2.42;;
73321;SDS011;61549;37.044;22.128;2023-04-03T13:14:19;7.95;;;1.95;;
73321;SDS011;61549;37.044;22.128;2023-04-03T13:19:43;10.90;;;4.07;;
73321;SDS011;61549;37.044;22.128;2023-04-03T13:22:25;10.43;;;2.38;;
73321;SDS011;61549;37.044;22.128;2023-04-03T13:25:05;7.25;;;1.77;;
73321;SDS011;61549;37.044;22.128;2023-04-03T13:27:33;5.95;;;1.92;;
73321;SDS011;61549;37.044;22.128;2023-04-03T13:30:00;9.50;;;2.83;;
73321;SDS011;61549;37.044;22.128;2023-04-03T13:32:28;7.78;;;2.00;;
73321;SDS011;61549;37.044;22.128;2023-04-03T13:35:01;10.93;;;2.15;;
73321;SDS011;61549;37.044;22.128;2023-04-03T13:37:55;6.05;;;1.73;;
73321;SDS011;61549;37.044;22.128;2023-04-03T13:40:22;12.43;;;2.90;;
73321;SDS011;61549;37.044;22.128;2023-04-03T13:42:58;10.93;;;2.28;;
73321;SDS011;61549;37.044;22.128;2023-04-03T13:45:29;7.63;;;1.80;;
73321;SDS011;61549;37.044;22.128;2023-04-03T13:48:08;5.53;;;1.80;;
73321;SDS011;61549;37.044;22.128;2023-04-03T13:53:33;7.85;;;1.80;;
73321;SDS011;61549;37.044;22.128;2023-04-03T13:56:07;5.40;;;1.80;;
73321;SDS011;61549;37.044;22.128;2023-04-03T13:58:51;8.60;;;1.85;;
73321;SDS011;61549;37.044;22.128;2023-04-03T14:01:19;6.70;;;1.55;;
73321;SDS011;61549;37.044;22.128;2023-04-03T14:03:51;6.05;;;1.80;;
73321;SDS011;61549;37.044;22.128;2023-04-03T14:06:17;6.20;;;1.92;;
73321;SDS011;61549;37.044;22.128;2023-04-03T14:08:44;10.32;;;1.75;;
73321;SDS011;61549;37.044;22.128;2023-04-03T14:11:15;9.65;;;2.10;;
73321;SDS011;61549;37.044;22.128;2023-04-03T14:13:43;6.07;;;1.60;;
73321;SDS011;61549;37.044;22.128;2023-04-03T14:16:15;9.98;;;2.40;;
73321;SDS011;61549;37.044;22.128;2023-04-03T14:18:46;6.82;;;1.83;;
73321;SDS011;61549;37.044;22.128;2023-04-03T14:21:14;6.70;;;2.03;;
73321;SDS011;61549;37.044;22.128;2023-04-03T14:23:41;6.13;;;1.77;;
73321;SDS011;61549;37.044;22.128;2023-04-03T14:26:15;10.25;;;2.00;;
73321;SDS011;61549;37.044;22.128;2023-04-03T14:28:43;6.85;;;1.52;;
73321;SDS011;61549;37.044;22.128;2023-04-03T14:31:12;9.55;;;2.00;;
73321;SDS011;61549;37.044;22.128;2023-04-03T14:33:47;7.68;;;1.20;;
73321;SDS011;61549;37.044;22.128;2023-04-03T14:36:17;6.72;;;1.50;;
73321;SDS011;61549;37.044;22.128;2023-04-03T14:38:49;9.18;;;1.83;;
73321;SDS011;61549;37.044;22.128;2023-04-03T14:41:16;8.82;;;1.60;;
73321;SDS011;61549;37.044;22.128;2023-04-03T14:43:45;6.68;;;1.27;;
73321;SDS011;61549;37.044;22.128;2023-04-03T14:46:13;6.30;;;1.10;;
73321;SDS011;61549;37.044;22.128;2023-04-03T14:48:41;4.32;;;1.40;;
73321;SDS011;61549;37.044;22.128;2023-04-03T14:51:11;7.65;;;1.65;;
73321;SDS011;61549;37.044;22.128;2023-04-03T14:53:39;10.05;;;2.40;;
73321;SDS011;61549;37.044;22.128;2023-04-03T14:58:58;10.20;;;2.67;;
73321;SDS011;61549;37.044;22.128;2023-04-03T15:01:25;10.50;;;3.72;;
73321;SDS011;61549;37.044;22.128;2023-04-03T15:03:52;8.63;;;2.40;;
73321;SDS011;61549;37.044;22.128;2023-04-03T15:06:18;9.13;;;2.60;;
73321;SDS011;61549;37.044;22.128;2023-04-03T15:08:45;8.02;;;1.73;;
73321;SDS011;61549;37.044;22.128;2023-04-03T15:11:13;9.27;;;1.90;;
73321;SDS011;61549;37.044;22.128;2023-04-03T15:13:39;7.30;;;2.00;;
73321;SDS011;61549;37.044;22.128;2023-04-03T15:16:18;7.88;;;2.05;;
73321;SDS011;61549;37.044;22.128;2023-04-03T15:18:45;7.45;;;2.20;;
73321;SDS011;61549;37.044;22.128;2023-04-03T15:21:12;6.85;;;1.77;;
73321;SDS011;61549;37.044;22.128;2023-04-03T15:23:38;8.95;;;1.80;;
73321;SDS011;61549;37.044;22.128;2023-04-03T15:26:07;7.85;;;2.40;;
73321;SDS011;61549;37.044;22.128;2023-04-03T15:28:34;9.05;;;2.20;;
73321;SDS011;61549;37.044;22.128;2023-04-03T15:31:05;7.32;;;1.55;;
73321;SDS011;61549;37.044;22.128;2023-04-03T15:33:32;10.10;;;1.60;;
73321;SDS011;61549;37.044;22.128;2023-04-03T15:35:59;7.13;;;1.30;;
73321;SDS011;61549;37.044;22.128;2023-04-03T15:38:25;9.07;;;1.75;;
73321;SDS011;61549;37.044;22.128;2023-04-03T15:40:52;5.57;;;1.83;;
73321;SDS011;61549;37.044;22.128;2023-04-03T15:43:20;6.93;;;2.10;;
73321;SDS011;61549;37.044;22.128;2023-04-03T15:45:46;11.73;;;3.83;;
73321;SDS011;61549;37.044;22.128;2023-04-03T15:48:13;11.07;;;2.70;;
73321;SDS011;61549;37.044;22.128;2023-04-03T15:50:39;7.93;;;2.67;;
73321;SDS011;61549;37.044;22.128;2023-04-03T15:53:05;7.50;;;2.40;;
73321;SDS011;61549;37.044;22.128;2023-04-03T15:55:32;8.45;;;2.80;;
73321;SDS011;61549;37.044;22.128;2023-04-03T15:58:00;6.55;;;2.20;;
73321;SDS011;61549;37.044;22.128;2023-04-03T16:00:26;4.95;;;1.55;;
73321;SDS011;61549;37.044;22.128;2023-04-03T16:02:55;7.25;;;2.05;;
73321;SDS011;61549;37.044;22.128;2023-04-03T16:05:23;8.15;;;2.65;;
73321;SDS011;61549;37.044;22.128;2023-04-03T16:07:50;6.50;;;1.58;;
73321;SDS011;61549;37.044;22.128;2023-04-03T16:10:23;14.27;;;2.83;;
73321;SDS011;61549;37.044;22.128;2023-04-03T16:12:50;11.82;;;2.10;;
73321;SDS011;61549;37.044;22.128;2023-04-03T16:15:15;8.07;;;2.60;;
73321;SDS011;61549;37.044;22.128;2023-04-03T16:17:41;7.68;;;2.15;;
73321;SDS011;61549;37.044;22.128;2023-04-03T16:20:08;5.63;;;1.50;;
73321;SDS011;61549;37.044;22.128;2023-04-03T16:22:36;9.77;;;2.63;;
73321;SDS011;61549;37.044;22.128;2023-04-03T16:25:03;8.88;;;1.73;;
73321;SDS011;61549;37.044;22.128;2023-04-03T16:27:30;10.27;;;2.83;;
73321;SDS011;61549;37.044;22.128;2023-04-03T16:29:56;13.65;;;6.22;;
73321;SDS011;61549;37.044;22.128;2023-04-03T16:32:23;14.93;;;4.15;;
73321;SDS011;61549;37.044;22.128;2023-04-03T16:35:00;11.68;;;3.10;;
73321;SDS011;61549;37.044;22.128;2023-04-03T16:37:26;8.70;;;2.00;;
73321;SDS011;61549;37.044;22.128;2023-04-03T16:39:52;6.85;;;2.45;;
73321;SDS011;61549;37.044;22.128;2023-04-03T16:42:18;7.38;;;2.72;;
73321;SDS011;61549;37.044;22.128;2023-04-03T16:44:44;10.60;;;2.53;;
73321;SDS011;61549;37.044;22.128;2023-04-03T16:47:10;10.32;;;3.63;;
73321;SDS011;61549;37.044;22.128;2023-04-03T16:49:39;14.07;;;4.45;;
73321;SDS011;61549;37.044;22.128;2023-04-03T16:52:05;12.13;;;3.67;;
73321;SDS011;61549;37.044;22.128;2023-04-03T16:54:31;10.40;;;2.40;;
73321;SDS011;61549;37.044;22.128;2023-04-03T16:56:57;9.57;;;2.50;;
73321;SDS011;61549;37.044;22.128;2023-04-03T16:59:23;10.07;;;3.40;;
73321;SDS011;61549;37.044;22.128;2023-04-03T17:01:49;12.25;;;3.75;;
73321;SDS011;61549;37.044;22.128;2023-04-03T17:04:15;10.18;;;3.67;;
73321;SDS011;61549;37.044;22.128;2023-04-03T17:06:41;11.05;;;4.20;;
73321;SDS011;61549;37.044;22.128;2023-04-03T17:09:07;11.77;;;5.07;;
73321;SDS011;61549;37.044;22.128;2023-04-03T17:11:34;14.90;;;6.82;;
73321;SDS011;61549;37.044;22.128;2023-04-03T17:14:00;18.67;;;8.10;;
73321;SDS011;61549;37.044;22.128;2023-04-03T17:16:27;16.23;;;8.05;;
73321;SDS011;61549;37.044;22.128;2023-04-03T17:18:54;20.52;;;7.82;;